Terminal Aerodrome Forecast
Issued by NWS Kansas City/Pleasant Hill, MO

Home | Current Version | Previous Version | Text Only | Print | Product List | Glossary On
Versions: 1 2 3 4 5 6 7 8 9 10 11 12 13 14 15 16 17 18 19 20 21 22
615
FTUS43 KEAX 291120
TAFMCI
TAF
KMCI 291120Z 2912/3012 04016KT 2SM SHRA VCTS OVC003CB
     FM291800 04017G27KT 2SM -SHRA BR VCTS OVC008CB
     FM292000 04017KT 3SM -SHRA BR OVC008
     FM300000 04015KT 2SM SHRA BR VCTS OVC008CB
     FM300200 05014KT 2SM SHRA BR VCTS OVC003CB
     FM300500 05013KT 2SM BR VCSH OVC003=

USA.gov is the U.S. government's official web portal to all federal, state and local government web resources and services.